Terminal Aerodrome Forecast
Issued by NWS

Home | Current Version | Previous Version | Text Only | Print | Product List | Glossary On
Versions: 1 2 3 4 5 6 7 8 9 10 11 12 13 14 15 16 17 18 19 20 21 22 23 24 25 26 27 28 29
895
FTUS43 KGRR 140540
TAFJXN
TAF
KJXN 140540Z 1406/1506 36013KT P6SM OVC015
     FM140800 34010KT P6SM BKN040
     FM141000 33005KT P6SM BKN040
     FM141300 32004KT P6SM SCT040
     FM142100 23004KT P6SM OVC040
     FM150200 20004KT 4SM -SHSN OVC035=

USA.gov is the U.S. government's official web portal to all federal, state and local government web resources and services.